Airfield :
LOGIN :

Register | Disclaimer

   EN    FR    IT 

 










Legend :    VFR   Marginal VFR   IFR   Intensive IFR   Very Intensive IFR
Visi :
Ceiling :
>= 8 km
>= 3000ft
5 to 8 km
1000 to 3000 ft
1500m to 5 km
500 to 1000 ft
800 to 1500m
200 to 500 ft
< 800m
< 200 ft
Symbols :   Thunderstorms  Fog  Heavy snow  Heavy precipitations  Wind > 20 kt
SIGMETs :     Misc.  Thunderstorms  Icing  Turbulence  Mountain Waves  Volcanic Ashes







- Airport Elevation : 117 ft
- IATA code : NWI
- Download approach charts


EGSH - Norwich

CURRENT METAR :
  • 172020Z 31007KT 280V350 4500 -SHRASN SCT014 BKN019 02/00 Q1016 RESHRA RESN BECMG 9999

EXPIRED METARs :
  • 171950Z 29010KT 9999 SHRASN FEW010 SCT014 03/00 Q1015 BECMG NSW
  • 171920Z 29012KT 9999 FEW024 03/00 Q1014 TEMPO SHRA
  • 171850Z 30011KT 270V340 9999 FEW024 03/00 Q1014 TEMPO SHRA
  • 171820Z 30012KT 260V350 9999 FEW022 SCT027 03/M00 Q1013 TEMPO SHRA
  • 171750Z 29013KT 260V330 9999 FEW022 SCT027 03/00 Q1013 NOSIG

TAF TAF EGSH
Valid from the 17 at 21:00 until the 18 at 00:00 UTC


172001Z 1721/1724 29008KT 9999 SCT018
PROB30
TEMPO 1721/1724 7000 SHRASN BKN008
ATIS : +44 1603 420 640
No reported NOTAMs for that airfield.



MET'MAP, your aeronautical weather chart ! - Copyright ORBIFLY December 2007 - Disclaimer

ORBIFLY MET'MAP TEAM :

Programming & Development : Alexandra Zaïnal
Concept & Development : Baudouin d'Aumeries
Co-Development & Prog : Marc-Olivier Méhu
Technical & hardware support : Manuel Goepfert

Contact : metmap@orbifly.com




SOURCES & CREDITS :

   NOAA